createdAt,value
2022-12-18T00:09:22.829Z,-7.7
2022-12-18T00:19:23.902Z,-7.6
2022-12-18T00:29:24.313Z,-7.8
2022-12-18T00:39:24.956Z,-8
2022-12-18T00:49:25.582Z,-7.7
2022-12-18T00:59:25.819Z,-7.8
2022-12-18T01:09:26.502Z,-7.8
2022-12-18T01:19:26.974Z,-7.9
2022-12-18T01:29:27.840Z,-8.1
2022-12-18T01:39:28.430Z,-7.8
2022-12-18T01:49:29.061Z,-8
2022-12-18T01:59:30.190Z,-7.9
2022-12-18T02:19:31.447Z,-7.9
2022-12-18T02:29:32.015Z,-8.2
2022-12-18T02:39:32.930Z,-8.1
2022-12-18T02:49:33.985Z,-8
2022-12-18T02:59:34.946Z,-8
2022-12-18T03:09:35.660Z,-8
2022-12-18T03:19:35.883Z,-8.2
2022-12-18T03:39:37.444Z,-8.2
2022-12-18T03:59:38.593Z,-8.2
2022-12-18T04:19:39.667Z,-8.3
2022-12-18T04:39:40.481Z,-8.4
2022-12-18T04:49:41.280Z,-8.3
2022-12-18T04:59:42.135Z,-8.3
2022-12-18T05:09:43.238Z,-8.3
2022-12-18T05:19:44.196Z,-8.3
2022-12-18T05:29:44.353Z,-8.2
2022-12-18T05:39:45.154Z,-8.2
2022-12-18T05:49:45.508Z,-8.2
2022-12-18T05:59:46.012Z,-8.2
2022-12-18T06:19:47.736Z,-8.4
2022-12-18T06:29:48.374Z,-8.4
2022-12-18T06:39:48.667Z,-8.5
2022-12-18T06:49:48.819Z,-8.5
2022-12-18T06:59:49.797Z,-8.6
2022-12-18T07:09:50.257Z,-8.6
2022-12-18T07:19:50.845Z,-8.4
2022-12-18T07:29:51.934Z,-8.4
2022-12-18T07:39:52.565Z,-8.3
2022-12-18T07:49:53.556Z,-8
2022-12-18T07:59:54.049Z,-7.4
2022-12-18T08:09:54.506Z,-7.5
2022-12-18T08:19:54.961Z,-7.9
2022-12-18T08:29:55.169Z,-7.4
2022-12-18T08:39:55.972Z,-7.2
2022-12-18T08:49:56.442Z,-7.1
2022-12-18T08:59:57.146Z,-6.6
2022-12-18T09:09:57.372Z,-6
2022-12-18T09:19:58.074Z,-5.6
2022-12-18T09:29:58.753Z,-5.4
2022-12-18T09:39:59.681Z,-5
2022-12-18T09:50:00.250Z,-4.4
2022-12-18T10:00:00.403Z,-3.9
2022-12-18T10:10:01.186Z,-3.5
2022-12-18T10:20:01.566Z,-3.2
2022-12-18T10:30:02.602Z,-2.8
2022-12-18T10:40:03.131Z,-2.5
2022-12-18T10:50:03.492Z,-2.3
2022-12-18T11:00:04.271Z,-2
2022-12-18T11:10:04.360Z,-1.8
2022-12-18T11:20:05.022Z,-1.6
2022-12-18T11:22:43.398Z,-1.6
2022-12-18T11:30:14.013Z,-1.4
2022-12-18T11:40:14.715Z,-1.2
2022-12-18T11:50:15.594Z,-1
2022-12-18T12:00:15.886Z,-0.6
2022-12-18T12:10:16.058Z,-0.2
2022-12-18T12:20:16.196Z,0
2022-12-18T12:30:17.247Z,0.1
2022-12-18T12:40:49.010Z,0.1
2022-12-18T12:50:18.631Z,-0.4
2022-12-18T13:00:18.846Z,-0.4
2022-12-18T13:10:19.337Z,-0.4
2022-12-18T13:20:19.350Z,-0.4
2022-12-18T13:30:19.869Z,-0.3
2022-12-18T13:40:20.173Z,-0.2
2022-12-18T13:50:20.882Z,-0.2
2022-12-18T14:00:21.137Z,-0.3
2022-12-18T14:10:44.464Z,-0.3
2022-12-18T14:20:22.479Z,-0.2
2022-12-18T14:40:23.768Z,-0.2
2022-12-18T14:50:24.660Z,0.1
2022-12-18T15:00:24.965Z,-0.3
2022-12-18T15:10:25.424Z,-0.6
2022-12-18T15:20:26.213Z,-0.5
2022-12-18T15:30:26.606Z,-0.4
2022-12-18T15:40:27.065Z,-0.6
2022-12-18T15:50:27.981Z,-0.7
2022-12-18T16:00:28.327Z,-0.6
2022-12-18T16:10:29.260Z,-0.7
2022-12-18T16:20:29.629Z,-0.4
2022-12-18T16:30:30.554Z,1.4
2022-12-18T16:40:30.859Z,1.6
2022-12-18T16:50:31.178Z,1.5
2022-12-18T17:00:31.294Z,1.2
2022-12-18T17:10:32.289Z,1.4
2022-12-18T17:20:33.333Z,1.4
2022-12-18T17:40:34.278Z,1.2
2022-12-18T17:50:34.963Z,1.3
2022-12-18T18:00:35.917Z,1.2
2022-12-18T18:10:36.583Z,1.1
2022-12-18T18:20:37.456Z,1.2
2022-12-18T18:30:37.670Z,1.1
2022-12-18T18:50:38.267Z,1
2022-12-18T19:00:39.376Z,0.9
2022-12-18T19:10:39.961Z,0.9
2022-12-18T19:20:40.665Z,0.9
2022-12-18T19:30:41.696Z,0.8
2022-12-18T19:40:41.783Z,0.9
2022-12-18T19:50:41.992Z,0.9
2022-12-18T20:00:42.205Z,1
2022-12-18T20:10:42.390Z,1
2022-12-18T20:20:42.659Z,1.1
2022-12-18T20:30:43.292Z,1.1
2022-12-18T20:40:44.250Z,1.3
2022-12-18T20:50:44.474Z,1.3
2022-12-18T21:10:44.976Z,1.2
2022-12-18T21:20:45.278Z,1.1
2022-12-18T21:30:45.718Z,1
2022-12-18T21:40:46.577Z,1
2022-12-18T21:50:47.248Z,1
2022-12-18T22:00:48.813Z,1.2
2022-12-18T22:10:48.533Z,1.3
2022-12-18T22:20:49.271Z,1.3
2022-12-18T22:30:49.791Z,1.2
2022-12-18T22:40:50.363Z,1.2
2022-12-18T22:50:51.014Z,1.2
2022-12-18T23:01:58.465Z,1.3
2022-12-18T23:10:52.025Z,1.4
2022-12-18T23:20:52.761Z,1.4
2022-12-18T23:30:53.035Z,1.5
2022-12-18T23:40:53.472Z,1.5
2022-12-18T23:50:54.205Z,1.6
